sensor_id;sensor_type;location;lat;lon;timestamp;temperature;humidity
78731;SHT31;68055;51.978;5.658;2023-11-21T00:02:05;12.4;69.6
78731;SHT31;68055;51.978;5.658;2023-11-21T00:04:34;12.3;69.8
78731;SHT31;68055;51.978;5.658;2023-11-21T00:07:04;12.3;69.4
78731;SHT31;68055;51.978;5.658;2023-11-21T00:09:32;12.3;70.2
78731;SHT31;68055;51.978;5.658;2023-11-21T00:12:01;12.2;69.9
78731;SHT31;68055;51.978;5.658;2023-11-21T00:14:30;12.2;69.4
78731;SHT31;68055;51.978;5.658;2023-11-21T00:16:59;12.2;69.9
78731;SHT31;68055;51.978;5.658;2023-11-21T00:19:27;12.2;69.3
78731;SHT31;68055;51.978;5.658;2023-11-21T00:21:56;12.1;69.0
78731;SHT31;68055;51.978;5.658;2023-11-21T00:24:25;12.1;69.2
78731;SHT31;68055;51.978;5.658;2023-11-21T00:26:53;12.1;70.2
78731;SHT31;68055;51.978;5.658;2023-11-21T00:29:22;12.1;70.0
78731;SHT31;68055;51.978;5.658;2023-11-21T00:31:50;12.0;69.4
78731;SHT31;68055;51.978;5.658;2023-11-21T00:34:20;12.0;69.5
78731;SHT31;68055;51.978;5.658;2023-11-21T00:36:48;12.0;70.4
78731;SHT31;68055;51.978;5.658;2023-11-21T00:39:17;12.0;69.9
78731;SHT31;68055;51.978;5.658;2023-11-21T00:41:47;11.9;69.1
78731;SHT31;68055;51.978;5.658;2023-11-21T00:44:16;11.9;69.8
78731;SHT31;68055;51.978;5.658;2023-11-21T00:46:45;11.9;69.4
78731;SHT31;68055;51.978;5.658;2023-11-21T00:49:13;11.9;70.4
78731;SHT31;68055;51.978;5.658;2023-11-21T00:51:42;11.8;70.8
78731;SHT31;68055;51.978;5.658;2023-11-21T00:54:12;11.8;69.9
78731;SHT31;68055;51.978;5.658;2023-11-21T00:56:43;11.8;69.2
78731;SHT31;68055;51.978;5.658;2023-11-21T00:59:13;11.8;69.7
78731;SHT31;68055;51.978;5.658;2023-11-21T01:01:42;11.7;69.6
78731;SHT31;68055;51.978;5.658;2023-11-21T01:04:11;11.7;69.4
78731;SHT31;68055;51.978;5.658;2023-11-21T01:06:39;11.7;69.9
78731;SHT31;68055;51.978;5.658;2023-11-21T01:09:10;11.7;70.0
78731;SHT31;68055;51.978;5.658;2023-11-21T01:11:39;11.6;69.9
78731;SHT31;68055;51.978;5.658;2023-11-21T01:14:07;11.6;70.3
78731;SHT31;68055;51.978;5.658;2023-11-21T01:16:37;11.6;70.6
78731;SHT31;68055;51.978;5.658;2023-11-21T01:19:05;11.6;70.2
78731;SHT31;68055;51.978;5.658;2023-11-21T01:21:34;11.6;70.1
78731;SHT31;68055;51.978;5.658;2023-11-21T01:24:03;11.6;70.4
78731;SHT31;68055;51.978;5.658;2023-11-21T01:26:33;11.6;70.5
78731;SHT31;68055;51.978;5.658;2023-11-21T01:29:02;11.6;70.6
78731;SHT31;68055;51.978;5.658;2023-11-21T01:31:31;11.6;70.5
78731;SHT31;68055;51.978;5.658;2023-11-21T01:33:59;11.6;70.5
78731;SHT31;68055;51.978;5.658;2023-11-21T01:36:32;11.6;71.1
78731;SHT31;68055;51.978;5.658;2023-11-21T01:39:02;11.6;71.4
78731;SHT31;68055;51.978;5.658;2023-11-21T01:41:34;11.6;71.0
78731;SHT31;68055;51.978;5.658;2023-11-21T01:44:03;11.6;71.2
78731;SHT31;68055;51.978;5.658;2023-11-21T01:46:34;11.6;71.4
78731;SHT31;68055;51.978;5.658;2023-11-21T01:49:04;11.6;71.3
78731;SHT31;68055;51.978;5.658;2023-11-21T01:51:36;11.6;71.4
78731;SHT31;68055;51.978;5.658;2023-11-21T01:54:06;11.7;71.5
78731;SHT31;68055;51.978;5.658;2023-11-21T01:56:35;11.7;71.1
78731;SHT31;68055;51.978;5.658;2023-11-21T01:59:05;11.7;71.3
78731;SHT31;68055;51.978;5.658;2023-11-21T02:01:34;11.7;71.3
78731;SHT31;68055;51.978;5.658;2023-11-21T02:04:02;11.7;71.2
78731;SHT31;68055;51.978;5.658;2023-11-21T02:06:31;11.7;71.1
78731;SHT31;68055;51.978;5.658;2023-11-21T02:09:00;11.7;70.9
78731;SHT31;68055;51.978;5.658;2023-11-21T02:11:31;11.7;70.6
78731;SHT31;68055;51.978;5.658;2023-11-21T02:14:01;11.7;70.3
78731;SHT31;68055;51.978;5.658;2023-11-21T02:16:30;11.7;70.5
78731;SHT31;68055;51.978;5.658;2023-11-21T02:19:00;11.6;70.6
78731;SHT31;68055;51.978;5.658;2023-11-21T02:21:30;11.6;70.3
78731;SHT31;68055;51.978;5.658;2023-11-21T02:23:59;11.6;70.6
78731;SHT31;68055;51.978;5.658;2023-11-21T02:26:28;11.6;71.1
78731;SHT31;68055;51.978;5.658;2023-11-21T02:28:57;11.6;70.9
78731;SHT31;68055;51.978;5.658;2023-11-21T02:31:27;11.6;71.2
78731;SHT31;68055;51.978;5.658;2023-11-21T02:33:56;11.7;71.1
78731;SHT31;68055;51.978;5.658;2023-11-21T02:36:25;11.7;71.1
78731;SHT31;68055;51.978;5.658;2023-11-21T02:38:53;11.7;70.9
78731;SHT31;68055;51.978;5.658;2023-11-21T02:41:22;11.7;71.1
78731;SHT31;68055;51.978;5.658;2023-11-21T02:43:50;11.7;71.1
78731;SHT31;68055;51.978;5.658;2023-11-21T02:46:19;11.7;71.1
78731;SHT31;68055;51.978;5.658;2023-11-21T02:48:48;11.7;71.2
78731;SHT31;68055;51.978;5.658;2023-11-21T02:51:17;11.8;71.0
78731;SHT31;68055;51.978;5.658;2023-11-21T02:53:46;11.8;71.1
78731;SHT31;68055;51.978;5.658;2023-11-21T02:56:14;11.8;70.6
78731;SHT31;68055;51.978;5.658;2023-11-21T02:58:43;11.8;70.6
78731;SHT31;68055;51.978;5.658;2023-11-21T03:01:12;11.8;70.7
78731;SHT31;68055;51.978;5.658;2023-11-21T03:03:41;11.8;70.4
78731;SHT31;68055;51.978;5.658;2023-11-21T03:06:09;11.9;70.6
78731;SHT31;68055;51.978;5.658;2023-11-21T03:08:38;11.9;70.6
78731;SHT31;68055;51.978;5.658;2023-11-21T03:11:08;11.9;70.5
78731;SHT31;68055;51.978;5.658;2023-11-21T03:13:37;11.9;70.2
78731;SHT31;68055;51.978;5.658;2023-11-21T03:16:06;11.9;70.3
78731;SHT31;68055;51.978;5.658;2023-11-21T03:18:35;11.9;70.3
78731;SHT31;68055;51.978;5.658;2023-11-21T03:21:04;11.9;70.1
78731;SHT31;68055;51.978;5.658;2023-11-21T03:23:35;11.9;70.4
78731;SHT31;68055;51.978;5.658;2023-11-21T03:26:04;11.9;70.5
78731;SHT31;68055;51.978;5.658;2023-11-21T03:28:34;11.9;70.3
78731;SHT31;68055;51.978;5.658;2023-11-21T03:31:03;11.9;70.6
78731;SHT31;68055;51.978;5.658;2023-11-21T03:33:32;11.9;70.6
78731;SHT31;68055;51.978;5.658;2023-11-21T03:36:01;12.0;70.7
78731;SHT31;68055;51.978;5.658;2023-11-21T03:38:30;12.0;70.5
78731;SHT31;68055;51.978;5.658;2023-11-21T03:40:58;12.0;70.4
78731;SHT31;68055;51.978;5.658;2023-11-21T03:43:27;12.0;70.3
78731;SHT31;68055;51.978;5.658;2023-11-21T03:45:55;12.0;70.5
78731;SHT31;68055;51.978;5.658;2023-11-21T03:48:26;12.1;70.4
78731;SHT31;68055;51.978;5.658;2023-11-21T03:50:54;12.1;70.3
78731;SHT31;68055;51.978;5.658;2023-11-21T03:53:23;12.1;70.4
78731;SHT31;68055;51.978;5.658;2023-11-21T03:55:51;12.1;70.4
78731;SHT31;68055;51.978;5.658;2023-11-21T03:58:20;12.1;70.3
78731;SHT31;68055;51.978;5.658;2023-11-21T04:00:49;12.1;70.3
78731;SHT31;68055;51.978;5.658;2023-11-21T04:03:19;12.2;70.4
78731;SHT31;68055;51.978;5.658;2023-11-21T04:05:48;12.2;70.5
78731;SHT31;68055;51.978;5.658;2023-11-21T04:08:18;12.2;70.2
78731;SHT31;68055;51.978;5.658;2023-11-21T04:10:47;12.2;70.1
78731;SHT31;68055;51.978;5.658;2023-11-21T04:13:17;12.2;70.2
78731;SHT31;68055;51.978;5.658;2023-11-21T04:15:46;12.3;70.2
78731;SHT31;68055;51.978;5.658;2023-11-21T04:18:14;12.3;70.3
78731;SHT31;68055;51.978;5.658;2023-11-21T04:20:43;12.3;70.2
78731;SHT31;68055;51.978;5.658;2023-11-21T04:23:12;12.3;70.2
78731;SHT31;68055;51.978;5.658;2023-11-21T04:25:41;12.3;70.2
78731;SHT31;68055;51.978;5.658;2023-11-21T04:28:10;12.3;70.0
78731;SHT31;68055;51.978;5.658;2023-11-21T04:30:38;12.3;70.1
78731;SHT31;68055;51.978;5.658;2023-11-21T04:33:07;12.4;70.1
78731;SHT31;68055;51.978;5.658;2023-11-21T04:35:36;12.4;70.1
78731;SHT31;68055;51.978;5.658;2023-11-21T04:38:04;12.4;70.2
78731;SHT31;68055;51.978;5.658;2023-11-21T04:40:35;12.4;70.1
78731;SHT31;68055;51.978;5.658;2023-11-21T04:43:03;12.4;70.0
78731;SHT31;68055;51.978;5.658;2023-11-21T04:45:32;12.4;70.0
78731;SHT31;68055;51.978;5.658;2023-11-21T04:48:01;12.4;70.1
78731;SHT31;68055;51.978;5.658;2023-11-21T04:50:29;12.4;70.1
78731;SHT31;68055;51.978;5.658;2023-11-21T04:52:58;12.5;70.1
78731;SHT31;68055;51.978;5.658;2023-11-21T04:55:26;12.5;70.2
78731;SHT31;68055;51.978;5.658;2023-11-21T04:57:58;12.4;70.2
78731;SHT31;68055;51.978;5.658;2023-11-21T05:00:26;12.4;70.2
78731;SHT31;68055;51.978;5.658;2023-11-21T05:02:55;12.5;70.3
78731;SHT31;68055;51.978;5.658;2023-11-21T05:05:23;12.5;70.3
78731;SHT31;68055;51.978;5.658;2023-11-21T05:07:52;12.5;70.4
78731;SHT31;68055;51.978;5.658;2023-11-21T05:10:21;12.5;70.5
78731;SHT31;68055;51.978;5.658;2023-11-21T05:12:50;12.5;70.5
78731;SHT31;68055;51.978;5.658;2023-11-21T05:15:19;12.5;70.4
78731;SHT31;68055;51.978;5.658;2023-11-21T05:17:49;12.5;70.5
78731;SHT31;68055;51.978;5.658;2023-11-21T05:20:18;12.5;70.3
78731;SHT31;68055;51.978;5.658;2023-11-21T05:22:48;12.5;70.4
78731;SHT31;68055;51.978;5.658;2023-11-21T05:25:17;12.6;70.4
78731;SHT31;68055;51.978;5.658;2023-11-21T05:27:46;12.6;70.4
78731;SHT31;68055;51.978;5.658;2023-11-21T05:30:15;12.6;70.4
78731;SHT31;68055;51.978;5.658;2023-11-21T05:32:44;12.6;70.5
78731;SHT31;68055;51.978;5.658;2023-11-21T05:35:13;12.6;70.6
78731;SHT31;68055;51.978;5.658;2023-11-21T05:37:42;12.6;70.5
78731;SHT31;68055;51.978;5.658;2023-11-21T05:40:12;12.6;70.4
78731;SHT31;68055;51.978;5.658;2023-11-21T05:42:41;12.6;70.4
78731;SHT31;68055;51.978;5.658;2023-11-21T05:45:10;12.6;70.5
78731;SHT31;68055;51.978;5.658;2023-11-21T05:47:40;12.6;70.4
78731;SHT31;68055;51.978;5.658;2023-11-21T05:50:10;12.7;70.5
78731;SHT31;68055;51.978;5.658;2023-11-21T05:52:41;12.7;70.5
78731;SHT31;68055;51.978;5.658;2023-11-21T05:55:10;12.7;70.6
78731;SHT31;68055;51.978;5.658;2023-11-21T05:57:40;12.7;70.6
78731;SHT31;68055;51.978;5.658;2023-11-21T06:00:11;12.7;70.5
78731;SHT31;68055;51.978;5.658;2023-11-21T06:02:46;12.7;70.5
78731;SHT31;68055;51.978;5.658;2023-11-21T06:05:17;12.7;70.5
78731;SHT31;68055;51.978;5.658;2023-11-21T06:07:47;12.7;70.5
78731;SHT31;68055;51.978;5.658;2023-11-21T06:10:15;12.7;70.6
78731;SHT31;68055;51.978;5.658;2023-11-21T06:12:46;12.7;70.6
78731;SHT31;68055;51.978;5.658;2023-11-21T06:15:15;12.7;70.6
78731;SHT31;68055;51.978;5.658;2023-11-21T06:17:45;12.7;70.6
78731;SHT31;68055;51.978;5.658;2023-11-21T06:20:19;12.7;70.6
78731;SHT31;68055;51.978;5.658;2023-11-21T06:22:49;12.8;70.6
78731;SHT31;68055;51.978;5.658;2023-11-21T06:25:19;12.8;70.7
78731;SHT31;68055;51.978;5.658;2023-11-21T06:27:48;12.8;70.7
78731;SHT31;68055;51.978;5.658;2023-11-21T06:30:18;12.8;70.8
78731;SHT31;68055;51.978;5.658;2023-11-21T06:32:47;12.8;70.8
78731;SHT31;68055;51.978;5.658;2023-11-21T06:35:17;12.8;70.8
78731;SHT31;68055;51.978;5.658;2023-11-21T06:37:46;12.8;70.9
78731;SHT31;68055;51.978;5.658;2023-11-21T06:40:16;12.8;70.9
78731;SHT31;68055;51.978;5.658;2023-11-21T06:42:45;12.8;71.0
78731;SHT31;68055;51.978;5.658;2023-11-21T06:45:14;12.8;71.1
78731;SHT31;68055;51.978;5.658;2023-11-21T06:47:43;12.8;71.1
78731;SHT31;68055;51.978;5.658;2023-11-21T06:50:12;12.8;71.2
78731;SHT31;68055;51.978;5.658;2023-11-21T06:52:40;12.8;71.2
78731;SHT31;68055;51.978;5.658;2023-11-21T06:55:09;12.8;71.3
78731;SHT31;68055;51.978;5.658;2023-11-21T06:57:38;12.8;71.3
78731;SHT31;68055;51.978;5.658;2023-11-21T07:00:10;12.8;71.3
78731;SHT31;68055;51.978;5.658;2023-11-21T07:02:39;12.8;71.3
78731;SHT31;68055;51.978;5.658;2023-11-21T07:05:08;12.8;71.4
78731;SHT31;68055;51.978;5.658;2023-11-21T07:07:37;12.8;71.3
78731;SHT31;68055;51.978;5.658;2023-11-21T07:10:06;12.8;71.3
78731;SHT31;68055;51.978;5.658;2023-11-21T07:12:36;12.8;71.3
78731;SHT31;68055;51.978;5.658;2023-11-21T07:15:06;12.9;71.2
78731;SHT31;68055;51.978;5.658;2023-11-21T07:17:36;12.9;71.2
78731;SHT31;68055;51.978;5.658;2023-11-21T07:20:05;12.9;71.2
78731;SHT31;68055;51.978;5.658;2023-11-21T07:22:35;12.9;71.0
78731;SHT31;68055;51.978;5.658;2023-11-21T07:25:04;12.9;71.0
78731;SHT31;68055;51.978;5.658;2023-11-21T07:27:33;12.9;71.1
78731;SHT31;68055;51.978;5.658;2023-11-21T07:30:04;13.0;71.1
78731;SHT31;68055;51.978;5.658;2023-11-21T07:32:34;13.0;70.9
78731;SHT31;68055;51.978;5.658;2023-11-21T07:35:06;13.0;70.9
78731;SHT31;68055;51.978;5.658;2023-11-21T07:37:35;13.0;71.0
78731;SHT31;68055;51.978;5.658;2023-11-21T07:40:04;13.0;71.0
78731;SHT31;68055;51.978;5.658;2023-11-21T07:42:34;13.0;71.1
78731;SHT31;68055;51.978;5.658;2023-11-21T07:45:03;13.0;71.0
78731;SHT31;68055;51.978;5.658;2023-11-21T07:47:33;13.0;71.2
78731;SHT31;68055;51.978;5.658;2023-11-21T07:50:02;13.1;71.3
78731;SHT31;68055;51.978;5.658;2023-11-21T07:52:31;13.1;71.3
78731;SHT31;68055;51.978;5.658;2023-11-21T07:55:00;13.1;71.4
78731;SHT31;68055;51.978;5.658;2023-11-21T07:57:28;13.1;71.4
78731;SHT31;68055;51.978;5.658;2023-11-21T07:59:57;13.1;71.5
78731;SHT31;68055;51.978;5.658;2023-11-21T08:02:26;13.1;71.4
78731;SHT31;68055;51.978;5.658;2023-11-21T08:04:55;13.1;71.3
78731;SHT31;68055;51.978;5.658;2023-11-21T08:07:23;13.2;71.4
78731;SHT31;68055;51.978;5.658;2023-11-21T08:09:52;13.2;71.4
78731;SHT31;68055;51.978;5.658;2023-11-21T08:12:21;13.2;71.3
78731;SHT31;68055;51.978;5.658;2023-11-21T08:14:50;13.2;71.2
78731;SHT31;68055;51.978;5.658;2023-11-21T08:17:18;13.2;71.3
78731;SHT31;68055;51.978;5.658;2023-11-21T08:19:48;13.2;71.4
78731;SHT31;68055;51.978;5.658;2023-11-21T08:22:17;13.2;71.4
78731;SHT31;68055;51.978;5.658;2023-11-21T08:24:48;13.3;71.3
78731;SHT31;68055;51.978;5.658;2023-11-21T08:27:17;13.3;71.2
78731;SHT31;68055;51.978;5.658;2023-11-21T08:29:47;13.3;71.2
78731;SHT31;68055;51.978;5.658;2023-11-21T08:32:17;13.3;71.6
78731;SHT31;68055;51.978;5.658;2023-11-21T08:34:46;13.3;71.6
78731;SHT31;68055;51.978;5.658;2023-11-21T08:37:17;13.3;71.8
78731;SHT31;68055;51.978;5.658;2023-11-21T08:39:47;13.4;71.8
78731;SHT31;68055;51.978;5.658;2023-11-21T08:42:16;13.4;71.6
78731;SHT31;68055;51.978;5.658;2023-11-21T08:44:45;13.4;71.6
78731;SHT31;68055;51.978;5.658;2023-11-21T08:47:15;13.4;71.5
78731;SHT31;68055;51.978;5.658;2023-11-21T08:49:45;13.4;71.6
78731;SHT31;68055;51.978;5.658;2023-11-21T08:52:14;13.4;71.6
78731;SHT31;68055;51.978;5.658;2023-11-21T08:54:43;13.5;71.6
78731;SHT31;68055;51.978;5.658;2023-11-21T08:57:12;13.5;71.5
78731;SHT31;68055;51.978;5.658;2023-11-21T08:59:40;13.5;71.6
78731;SHT31;68055;51.978;5.658;2023-11-21T09:02:11;13.5;71.5
78731;SHT31;68055;51.978;5.658;2023-11-21T09:04:39;13.6;71.4
78731;SHT31;68055;51.978;5.658;2023-11-21T09:07:10;13.6;71.3
78731;SHT31;68055;51.978;5.658;2023-11-21T09:09:38;13.6;71.3
78731;SHT31;68055;51.978;5.658;2023-11-21T09:12:07;13.7;71.3
78731;SHT31;68055;51.978;5.658;2023-11-21T09:14:38;13.7;71.2
78731;SHT31;68055;51.978;5.658;2023-11-21T09:17:08;13.7;71.2
78731;SHT31;68055;51.978;5.658;2023-11-21T09:19:39;13.7;71.1
78731;SHT31;68055;51.978;5.658;2023-11-21T09:22:11;13.8;71.0
78731;SHT31;68055;51.978;5.658;2023-11-21T09:24:42;13.8;70.9
78731;SHT31;68055;51.978;5.658;2023-11-21T09:27:12;13.8;70.9
78731;SHT31;68055;51.978;5.658;2023-11-21T09:29:43;13.8;71.0
78731;SHT31;68055;51.978;5.658;2023-11-21T09:32:16;13.8;71.2
78731;SHT31;68055;51.978;5.658;2023-11-21T09:34:45;13.9;71.1
78731;SHT31;68055;51.978;5.658;2023-11-21T09:37:13;13.9;71.2
78731;SHT31;68055;51.978;5.658;2023-11-21T09:39:42;13.9;71.2
78731;SHT31;68055;51.978;5.658;2023-11-21T09:42:13;13.9;71.2
78731;SHT31;68055;51.978;5.658;2023-11-21T09:44:54;13.9;71.2
78731;SHT31;68055;51.978;5.658;2023-11-21T09:47:25;13.9;71.5
78731;SHT31;68055;51.978;5.658;2023-11-21T09:49:54;13.9;71.3
78731;SHT31;68055;51.978;5.658;2023-11-21T09:52:28;13.9;71.7
78731;SHT31;68055;51.978;5.658;2023-11-21T09:55:00;13.9;72.4
78731;SHT31;68055;51.978;5.658;2023-11-21T09:57:32;14.0;72.4
78731;SHT31;68055;51.978;5.658;2023-11-21T10:00:02;14.0;72.1
78731;SHT31;68055;51.978;5.658;2023-11-21T10:02:38;14.0;72.5
78731;SHT31;68055;51.978;5.658;2023-11-21T10:05:09;14.1;72.2
78731;SHT31;68055;51.978;5.658;2023-11-21T10:07:39;14.1;71.8
78731;SHT31;68055;51.978;5.658;2023-11-21T10:10:09;14.1;71.9
78731;SHT31;68055;51.978;5.658;2023-11-21T10:12:38;14.1;71.7
78731;SHT31;68055;51.978;5.658;2023-11-21T10:15:11;14.1;71.8
78731;SHT31;68055;51.978;5.658;2023-11-21T10:17:46;14.2;71.7
78731;SHT31;68055;51.978;5.658;2023-11-21T10:20:17;14.2;71.7
78731;SHT31;68055;51.978;5.658;2023-11-21T10:22:46;14.2;71.1
78731;SHT31;68055;51.978;5.658;2023-11-21T10:25:15;14.2;71.0
78731;SHT31;68055;51.978;5.658;2023-11-21T10:27:48;14.2;71.2
78731;SHT31;68055;51.978;5.658;2023-11-21T10:30:18;14.2;71.1
78731;SHT31;68055;51.978;5.658;2023-11-21T10:32:47;14.2;70.6
78731;SHT31;68055;51.978;5.658;2023-11-21T10:35:18;14.2;70.6
78731;SHT31;68055;51.978;5.658;2023-11-21T10:37:59;14.1;70.6
78731;SHT31;68055;51.978;5.658;2023-11-21T10:40:29;14.1;71.0
78731;SHT31;68055;51.978;5.658;2023-11-21T10:43:07;14.1;71.0
78731;SHT31;68055;51.978;5.658;2023-11-21T10:45:37;14.1;70.8
78731;SHT31;68055;51.978;5.658;2023-11-21T10:48:10;14.1;70.4
78731;SHT31;68055;51.978;5.658;2023-11-21T10:50:42;14.1;71.0
78731;SHT31;68055;51.978;5.658;2023-11-21T10:53:11;14.1;71.3
78731;SHT31;68055;51.978;5.658;2023-11-21T10:55:40;14.1;71.3
78731;SHT31;68055;51.978;5.658;2023-11-21T10:58:10;14.1;71.7
78731;SHT31;68055;51.978;5.658;2023-11-21T11:00:41;14.1;71.5
78731;SHT31;68055;51.978;5.658;2023-11-21T11:03:12;14.1;71.1
78731;SHT31;68055;51.978;5.658;2023-11-21T11:05:43;14.1;71.1
78731;SHT31;68055;51.978;5.658;2023-11-21T11:08:19;14.1;71.2
78731;SHT31;68055;51.978;5.658;2023-11-21T11:10:53;14.1;70.8
78731;SHT31;68055;51.978;5.658;2023-11-21T11:13:22;14.1;70.9
78731;SHT31;68055;51.978;5.658;2023-11-21T11:15:59;14.1;70.8
78731;SHT31;68055;51.978;5.658;2023-11-21T11:18:30;14.1;70.8
78731;SHT31;68055;51.978;5.658;2023-11-21T11:21:11;14.1;70.9
78731;SHT31;68055;51.978;5.658;2023-11-21T11:23:58;14.1;70.7
78731;SHT31;68055;51.978;5.658;2023-11-21T11:26:42;14.1;70.4
78731;SHT31;68055;51.978;5.658;2023-11-21T11:29:23;14.0;70.1
78731;SHT31;68055;51.978;5.658;2023-11-21T11:32:05;14.0;70.1
78731;SHT31;68055;51.978;5.658;2023-11-21T11:34:44;14.0;71.2
78731;SHT31;68055;51.978;5.658;2023-11-21T11:37:16;14.0;70.6
78731;SHT31;68055;51.978;5.658;2023-11-21T11:39:45;14.0;70.8
78731;SHT31;68055;51.978;5.658;2023-11-21T11:42:17;14.0;70.7
78731;SHT31;68055;51.978;5.658;2023-11-21T11:44:52;14.0;71.0
78731;SHT31;68055;51.978;5.658;2023-11-21T11:47:27;13.9;71.4
78731;SHT31;68055;51.978;5.658;2023-11-21T11:50:01;14.0;71.2
78731;SHT31;68055;51.978;5.658;2023-11-21T11:52:35;14.0;71.2
78731;SHT31;68055;51.978;5.658;2023-11-21T11:55:06;14.0;71.4
78731;SHT31;68055;51.978;5.658;2023-11-21T11:57:37;14.0;71.8
78731;SHT31;68055;51.978;5.658;2023-11-21T12:00:14;14.0;71.6
78731;SHT31;68055;51.978;5.658;2023-11-21T12:02:48;14.0;71.6
78731;SHT31;68055;51.978;5.658;2023-11-21T12:05:19;13.9;71.8
78731;SHT31;68055;51.978;5.658;2023-11-21T12:07:50;13.9;72.0
78731;SHT31;68055;51.978;5.658;2023-11-21T12:10:22;13.9;71.6
78731;SHT31;68055;51.978;5.658;2023-11-21T12:12:53;13.9;71.3
78731;SHT31;68055;51.978;5.658;2023-11-21T12:15:22;13.9;71.8
78731;SHT31;68055;51.978;5.658;2023-11-21T12:17:52;13.9;72.0
78731;SHT31;68055;51.978;5.658;2023-11-21T12:20:22;14.0;71.8
78731;SHT31;68055;51.978;5.658;2023-11-21T12:22:53;14.0;71.4
78731;SHT31;68055;51.978;5.658;2023-11-21T12:25:23;14.0;71.2
78731;SHT31;68055;51.978;5.658;2023-11-21T12:27:56;14.0;71.0
78731;SHT31;68055;51.978;5.658;2023-11-21T12:30:26;14.0;71.0
78731;SHT31;68055;51.978;5.658;2023-11-21T12:32:58;14.0;70.9
78731;SHT31;68055;51.978;5.658;2023-11-21T12:35:29;14.0;71.1
78731;SHT31;68055;51.978;5.658;2023-11-21T12:38:01;14.0;71.1
78731;SHT31;68055;51.978;5.658;2023-11-21T12:40:31;14.0;71.2
78731;SHT31;68055;51.978;5.658;2023-11-21T12:43:01;14.0;71.5
78731;SHT31;68055;51.978;5.658;2023-11-21T12:45:30;14.0;71.1
78731;SHT31;68055;51.978;5.658;2023-11-21T12:48:02;14.0;70.9
78731;SHT31;68055;51.978;5.658;2023-11-21T12:50:35;14.0;70.7
78731;SHT31;68055;51.978;5.658;2023-11-21T12:53:06;14.0;70.5
78731;SHT31;68055;51.978;5.658;2023-11-21T12:55:35;14.0;70.5
78731;SHT31;68055;51.978;5.658;2023-11-21T12:58:07;14.0;70.7
78731;SHT31;68055;51.978;5.658;2023-11-21T13:00:39;13.9;70.6
78731;SHT31;68055;51.978;5.658;2023-11-21T13:03:10;13.9;70.7
78731;SHT31;68055;51.978;5.658;2023-11-21T13:05:44;13.9;70.6
78731;SHT31;68055;51.978;5.658;2023-11-21T13:08:13;13.9;71.0
78731;SHT31;68055;51.978;5.658;2023-11-21T13:10:49;13.9;71.2
78731;SHT31;68055;51.978;5.658;2023-11-21T13:13:18;13.9;70.9
78731;SHT31;68055;51.978;5.658;2023-11-21T13:15:51;13.9;70.6
78731;SHT31;68055;51.978;5.658;2023-11-21T13:18:22;13.9;70.7
78731;SHT31;68055;51.978;5.658;2023-11-21T13:20:53;13.9;70.6
78731;SHT31;68055;51.978;5.658;2023-11-21T13:23:22;13.9;70.8
78731;SHT31;68055;51.978;5.658;2023-11-21T13:25:53;13.9;70.2
78731;SHT31;68055;51.978;5.658;2023-11-21T13:28:22;13.9;70.3
78731;SHT31;68055;51.978;5.658;2023-11-21T13:30:55;13.9;70.5
78731;SHT31;68055;51.978;5.658;2023-11-21T13:33:29;13.9;70.1
78731;SHT31;68055;51.978;5.658;2023-11-21T13:36:00;13.9;70.1
78731;SHT31;68055;51.978;5.658;2023-11-21T13:38:29;13.9;69.8
78731;SHT31;68055;51.978;5.658;2023-11-21T13:40:59;13.9;70.1
78731;SHT31;68055;51.978;5.658;2023-11-21T13:43:31;13.9;69.9
78731;SHT31;68055;51.978;5.658;2023-11-21T13:46:00;13.9;70.1
78731;SHT31;68055;51.978;5.658;2023-11-21T13:48:34;13.9;69.9
78731;SHT31;68055;51.978;5.658;2023-11-21T13:51:08;13.9;69.8
78731;SHT31;68055;51.978;5.658;2023-11-21T13:53:42;13.9;69.4
78731;SHT31;68055;51.978;5.658;2023-11-21T13:56:13;13.9;69.8
78731;SHT31;68055;51.978;5.658;2023-11-21T13:58:45;13.9;69.3
78731;SHT31;68055;51.978;5.658;2023-11-21T14:01:18;13.9;69.4
78731;SHT31;68055;51.978;5.658;2023-11-21T14:04:10;13.9;69.5
78731;SHT31;68055;51.978;5.658;2023-11-21T14:06:46;13.9;69.9
78731;SHT31;68055;51.978;5.658;2023-11-21T14:09:19;13.9;69.7
78731;SHT31;68055;51.978;5.658;2023-11-21T14:11:53;14.0;69.3
78731;SHT31;68055;51.978;5.658;2023-11-21T14:14:25;13.9;69.0
78731;SHT31;68055;51.978;5.658;2023-11-21T14:16:54;13.9;68.9
78731;SHT31;68055;51.978;5.658;2023-11-21T14:19:27;13.9;68.9
78731;SHT31;68055;51.978;5.658;2023-11-21T14:21:58;13.9;68.8
78731;SHT31;68055;51.978;5.658;2023-11-21T14:24:27;13.9;68.8
78731;SHT31;68055;51.978;5.658;2023-11-21T14:26:58;13.8;68.9
78731;SHT31;68055;51.978;5.658;2023-11-21T14:29:27;13.8;68.7
78731;SHT31;68055;51.978;5.658;2023-11-21T14:31:56;13.7;69.1
78731;SHT31;68055;51.978;5.658;2023-11-21T14:34:24;13.7;68.8
78731;SHT31;68055;51.978;5.658;2023-11-21T14:36:53;13.7;69.0
78731;SHT31;68055;51.978;5.658;2023-11-21T14:39:21;13.6;69.2
78731;SHT31;68055;51.978;5.658;2023-11-21T14:41:54;13.6;69.1
78731;SHT31;68055;51.978;5.658;2023-11-21T14:44:24;13.6;69.2
78731;SHT31;68055;51.978;5.658;2023-11-21T14:46:58;13.5;69.2
78731;SHT31;68055;51.978;5.658;2023-11-21T14:49:32;13.5;69.4
78731;SHT31;68055;51.978;5.658;2023-11-21T14:52:05;13.5;69.5
78731;SHT31;68055;51.978;5.658;2023-11-21T14:54:39;13.5;69.6
78731;SHT31;68055;51.978;5.658;2023-11-21T14:57:13;13.4;69.8
78731;SHT31;68055;51.978;5.658;2023-11-21T14:59:46;13.4;69.9
78731;SHT31;68055;51.978;5.658;2023-11-21T15:02:18;13.4;69.8
78731;SHT31;68055;51.978;5.658;2023-11-21T15:04:49;13.3;70.2
78731;SHT31;68055;51.978;5.658;2023-11-21T15:07:23;13.3;70.4
78731;SHT31;68055;51.978;5.658;2023-11-21T15:09:54;13.2;70.5
78731;SHT31;68055;51.978;5.658;2023-11-21T15:12:22;13.2;70.4
78731;SHT31;68055;51.978;5.658;2023-11-21T15:14:55;13.1;70.1
78731;SHT31;68055;51.978;5.658;2023-11-21T15:17:24;13.1;70.1
78731;SHT31;68055;51.978;5.658;2023-11-21T15:19:53;13.1;69.9
78731;SHT31;68055;51.978;5.658;2023-11-21T15:22:22;13.0;69.6
78731;SHT31;68055;51.978;5.658;2023-11-21T15:24:54;13.0;69.0
78731;SHT31;68055;51.978;5.658;2023-11-21T15:27:24;12.9;68.9
78731;SHT31;68055;51.978;5.658;2023-11-21T15:29:53;12.9;68.7
78731;SHT31;68055;51.978;5.658;2023-11-21T15:32:24;12.9;68.6
78731;SHT31;68055;51.978;5.658;2023-11-21T15:34:53;12.8;68.2
78731;SHT31;68055;51.978;5.658;2023-11-21T15:37:21;12.8;68.1
78731;SHT31;68055;51.978;5.658;2023-11-21T15:39:52;12.8;68.2
78731;SHT31;68055;51.978;5.658;2023-11-21T15:42:21;12.7;67.8
78731;SHT31;68055;51.978;5.658;2023-11-21T15:44:50;12.7;67.8
78731;SHT31;68055;51.978;5.658;2023-11-21T15:47:18;12.7;66.7
78731;SHT31;68055;51.978;5.658;2023-11-21T15:49:47;12.6;66.9
78731;SHT31;68055;51.978;5.658;2023-11-21T15:52:17;12.6;66.7
78731;SHT31;68055;51.978;5.658;2023-11-21T15:54:46;12.6;65.8
78731;SHT31;68055;51.978;5.658;2023-11-21T15:57:14;12.5;66.4
78731;SHT31;68055;51.978;5.658;2023-11-21T15:59:43;12.5;66.3
78731;SHT31;68055;51.978;5.658;2023-11-21T16:02:12;12.5;66.6
78731;SHT31;68055;51.978;5.658;2023-11-21T16:04:42;12.4;66.0
78731;SHT31;68055;51.978;5.658;2023-11-21T16:07:11;12.4;65.9
78731;SHT31;68055;51.978;5.658;2023-11-21T16:09:40;12.4;65.7
78731;SHT31;68055;51.978;5.658;2023-11-21T16:12:12;12.4;65.8
78731;SHT31;68055;51.978;5.658;2023-11-21T16:14:41;12.3;65.0
78731;SHT31;68055;51.978;5.658;2023-11-21T16:17:12;12.3;64.9
78731;SHT31;68055;51.978;5.658;2023-11-21T16:19:43;12.2;63.9
78731;SHT31;68055;51.978;5.658;2023-11-21T16:22:13;12.2;64.7